sensor_id;sensor_type;location;lat;lon;timestamp;pressure;altitude;pressure_sealevel;temperature;humidity
1616;BME280;801;47.982;7.810;2023-11-21T00:00:31;98130.06;;;9.65;100.00
1616;BME280;801;47.982;7.810;2023-11-21T00:02:58;98139.72;;;9.61;100.00
1616;BME280;801;47.982;7.810;2023-11-21T00:05:24;98132.47;;;9.56;100.00
1616;BME280;801;47.982;7.810;2023-11-21T00:07:52;98136.00;;;9.83;100.00
1616;BME280;801;47.982;7.810;2023-11-21T00:10:18;98127.91;;;9.62;100.00
1616;BME280;801;47.982;7.810;2023-11-21T00:12:45;98126.84;;;9.58;100.00
1616;BME280;801;47.982;7.810;2023-11-21T00:15:13;98132.22;;;9.63;100.00
1616;BME280;801;47.982;7.810;2023-11-21T00:17:40;98122.81;;;9.71;100.00
1616;BME280;801;47.982;7.810;2023-11-21T00:20:08;98123.91;;;9.70;100.00
1616;BME280;801;47.982;7.810;2023-11-21T00:22:37;98115.03;;;9.59;100.00
1616;BME280;801;47.982;7.810;2023-11-21T00:25:07;98124.41;;;9.56;100.00
1616;BME280;801;47.982;7.810;2023-11-21T00:27:34;98123.09;;;9.74;100.00
1616;BME280;801;47.982;7.810;2023-11-21T00:30:01;98117.72;;;9.64;100.00
1616;BME280;801;47.982;7.810;2023-11-21T00:32:29;98109.13;;;9.62;100.00
1616;BME280;801;47.982;7.810;2023-11-21T00:34:56;98117.19;;;9.67;100.00
1616;BME280;801;47.982;7.810;2023-11-21T00:37:22;98108.34;;;9.67;100.00
1616;BME280;801;47.982;7.810;2023-11-21T00:39:50;98104.59;;;9.63;100.00
1616;BME280;801;47.982;7.810;2023-11-21T00:42:18;98101.88;;;9.57;100.00
1616;BME280;801;47.982;7.810;2023-11-21T00:44:44;98099.72;;;9.60;100.00
1616;BME280;801;47.982;7.810;2023-11-21T00:47:10;98101.31;;;9.45;100.00
1616;BME280;801;47.982;7.810;2023-11-21T00:49:37;98106.94;;;9.44;100.00
1616;BME280;801;47.982;7.810;2023-11-21T00:52:04;98093.53;;;9.44;100.00
1616;BME280;801;47.982;7.810;2023-11-21T00:54:31;98105.06;;;9.44;100.00
1616;BME280;801;47.982;7.810;2023-11-21T00:56:58;98094.31;;;9.39;100.00
1616;BME280;801;47.982;7.810;2023-11-21T00:59:26;98110.16;;;9.51;100.00
1616;BME280;801;47.982;7.810;2023-11-21T01:01:53;98116.59;;;9.40;100.00
1616;BME280;801;47.982;7.810;2023-11-21T01:04:19;98108.78;;;9.33;100.00
1616;BME280;801;47.982;7.810;2023-11-21T01:06:46;98101.56;;;9.33;100.00
1616;BME280;801;47.982;7.810;2023-11-21T01:09:12;98118.47;;;9.34;100.00
1616;BME280;801;47.982;7.810;2023-11-21T01:11:39;98117.47;;;9.71;100.00
1616;BME280;801;47.982;7.810;2023-11-21T01:14:05;98120.44;;;9.95;100.00
1616;BME280;801;47.982;7.810;2023-11-21T01:16:35;98117.75;;;9.80;100.00
1616;BME280;801;47.982;7.810;2023-11-21T01:19:01;98105.31;;;9.27;100.00
1616;BME280;801;47.982;7.810;2023-11-21T01:21:29;98112.56;;;9.37;100.00
1616;BME280;801;47.982;7.810;2023-11-21T01:23:56;98112.56;;;9.37;100.00
1616;BME280;801;47.982;7.810;2023-11-21T01:26:23;98119.75;;;9.26;100.00
1616;BME280;801;47.982;7.810;2023-11-21T01:28:49;98131.06;;;9.33;100.00
1616;BME280;801;47.982;7.810;2023-11-21T01:31:16;98126.22;;;9.30;100.00
1616;BME280;801;47.982;7.810;2023-11-21T01:33:44;98125.97;;;9.32;100.00
1616;BME280;801;47.982;7.810;2023-11-21T01:36:10;98128.38;;;9.33;100.00
1616;BME280;801;47.982;7.810;2023-11-21T01:38:36;98128.41;;;9.44;100.00
1616;BME280;801;47.982;7.810;2023-11-21T01:41:04;98129.44;;;9.38;100.00
1616;BME280;801;47.982;7.810;2023-11-21T01:43:31;98123.53;;;9.30;100.00
1616;BME280;801;47.982;7.810;2023-11-21T01:45:58;98117.13;;;9.37;100.00
1616;BME280;801;47.982;7.810;2023-11-21T01:48:25;98123.28;;;9.37;100.00
1616;BME280;801;47.982;7.810;2023-11-21T01:50:52;98117.66;;;9.33;100.00
1616;BME280;801;47.982;7.810;2023-11-21T01:53:19;98108.03;;;9.43;100.00
1616;BME280;801;47.982;7.810;2023-11-21T01:55:46;98107.50;;;9.46;100.00
1616;BME280;801;47.982;7.810;2023-11-21T01:58:13;98115.47;;;9.25;100.00
1616;BME280;801;47.982;7.810;2023-11-21T02:00:39;98121.94;;;9.29;100.00
1616;BME280;801;47.982;7.810;2023-11-21T02:03:06;98133.75;;;9.44;100.00
1616;BME280;801;47.982;7.810;2023-11-21T02:05:33;98132.16;;;9.43;100.00
1616;BME280;801;47.982;7.810;2023-11-21T02:08:01;98131.84;;;9.29;100.00
1616;BME280;801;47.982;7.810;2023-11-21T02:10:28;98128.09;;;9.30;100.00
1616;BME280;801;47.982;7.810;2023-11-21T02:12:56;98118.97;;;9.31;100.00
1616;BME280;801;47.982;7.810;2023-11-21T02:15:23;98113.88;;;9.24;100.00
1616;BME280;801;47.982;7.810;2023-11-21T02:17:54;98115.00;;;9.44;100.00
1616;BME280;801;47.982;7.810;2023-11-21T02:20:21;98121.94;;;9.29;100.00
1616;BME280;801;47.982;7.810;2023-11-21T02:22:52;98116.03;;;9.32;100.00
1616;BME280;801;47.982;7.810;2023-11-21T02:25:23;98107.19;;;9.32;100.00
1616;BME280;801;47.982;7.810;2023-11-21T02:27:49;98097.81;;;9.34;100.00
1616;BME280;801;47.982;7.810;2023-11-21T02:30:16;98109.56;;;9.23;100.00
1616;BME280;801;47.982;7.810;2023-11-21T02:32:44;98102.31;;;9.24;100.00
1616;BME280;801;47.982;7.810;2023-11-21T02:35:11;98110.13;;;9.25;100.00
1616;BME280;801;47.982;7.810;2023-11-21T02:37:38;98109.63;;;9.33;100.00
1616;BME280;801;47.982;7.810;2023-11-21T02:40:09;98104.72;;;9.15;100.00
1616;BME280;801;47.982;7.810;2023-11-21T02:42:37;98107.38;;;9.15;100.00
1616;BME280;801;47.982;7.810;2023-11-21T02:45:05;98096.16;;;9.23;100.00
1616;BME280;801;47.982;7.810;2023-11-21T02:47:32;98103.16;;;9.24;100.00
1616;BME280;801;47.982;7.810;2023-11-21T02:49:58;98109.56;;;9.28;100.00
1616;BME280;801;47.982;7.810;2023-11-21T02:52:25;98109.66;;;9.49;100.00
1616;BME280;801;47.982;7.810;2023-11-21T02:54:52;98112.81;;;9.30;100.00
1616;BME280;801;47.982;7.810;2023-11-21T02:57:20;98091.34;;;9.30;100.00
1616;BME280;801;47.982;7.810;2023-11-21T02:59:46;98091.91;;;9.38;100.00
1616;BME280;801;47.982;7.810;2023-11-21T03:02:13;98095.38;;;9.33;100.00
1616;BME280;801;47.982;7.810;2023-11-21T03:04:40;98101.47;;;9.13;100.00
1616;BME280;801;47.982;7.810;2023-11-21T03:07:08;98092.94;;;9.21;100.00
1616;BME280;801;47.982;7.810;2023-11-21T03:09:34;98095.59;;;9.11;100.00
1616;BME280;801;47.982;7.810;2023-11-21T03:12:01;98094.81;;;9.26;100.00
1616;BME280;801;47.982;7.810;2023-11-21T03:14:29;98091.59;;;9.13;100.00
1616;BME280;801;47.982;7.810;2023-11-21T03:16:55;98087.63;;;9.31;100.00
1616;BME280;801;47.982;7.810;2023-11-21T03:19:22;98083.81;;;9.12;100.00
1616;BME280;801;47.982;7.810;2023-11-21T03:21:48;98096.66;;;9.15;100.00
1616;BME280;801;47.982;7.810;2023-11-21T03:24:15;98094.56;;;9.22;100.00
1616;BME280;801;47.982;7.810;2023-11-21T03:26:44;98088.06;;;9.13;100.00
1616;BME280;801;47.982;7.810;2023-11-21T03:29:11;98084.88;;;9.11;100.00
1616;BME280;801;47.982;7.810;2023-11-21T03:31:40;98090.50;;;9.20;100.00
1616;BME280;801;47.982;7.810;2023-11-21T03:34:09;98090.25;;;9.11;100.00
1616;BME280;801;47.982;7.810;2023-11-21T03:36:35;98097.50;;;9.26;100.00
1616;BME280;801;47.982;7.810;2023-11-21T03:39:03;98094.56;;;9.22;100.00
1616;BME280;801;47.982;7.810;2023-11-21T03:41:30;98085.69;;;9.22;100.00
1616;BME280;801;47.982;7.810;2023-11-21T03:43:57;98083.34;;;9.35;100.00
1616;BME280;801;47.982;7.810;2023-11-21T03:46:23;98086.06;;;9.61;100.00
1616;BME280;801;47.982;7.810;2023-11-21T03:48:51;98099.94;;;9.38;100.00
1616;BME280;801;47.982;7.810;2023-11-21T03:51:18;98105.31;;;9.27;100.00
1616;BME280;801;47.982;7.810;2023-11-21T03:53:44;98105.31;;;9.27;100.00
1616;BME280;801;47.982;7.810;2023-11-21T03:56:11;98092.75;;;9.43;100.00
1616;BME280;801;47.982;7.810;2023-11-21T03:58:37;98089.22;;;9.27;100.00
1616;BME280;801;47.982;7.810;2023-11-21T04:01:04;98097.81;;;9.40;100.00
1616;BME280;801;47.982;7.810;2023-11-21T04:03:31;98091.63;;;9.29;100.00
1616;BME280;801;47.982;7.810;2023-11-21T04:05:59;98091.03;;;9.17;100.00
1616;BME280;801;47.982;7.810;2023-11-21T04:08:26;98094.03;;;9.20;100.00
1616;BME280;801;47.982;7.810;2023-11-21T04:10:52;98096.13;;;9.13;100.00
1616;BME280;801;47.982;7.810;2023-11-21T04:13:20;98095.56;;;9.06;100.00
1616;BME280;801;47.982;7.810;2023-11-21T04:15:46;98088.63;;;9.10;100.00
1616;BME280;801;47.982;7.810;2023-11-21T04:18:13;98116.19;;;9.00;100.00
1616;BME280;801;47.982;7.810;2023-11-21T04:20:39;98094.53;;;9.12;100.00
1616;BME280;801;47.982;7.810;2023-11-21T04:23:07;98101.69;;;8.96;100.00
1616;BME280;801;47.982;7.810;2023-11-21T04:25:35;98104.63;;;9.00;100.00
1616;BME280;801;47.982;7.810;2023-11-21T04:28:02;98115.34;;;8.94;100.00
1616;BME280;801;47.982;7.810;2023-11-21T04:30:29;98100.41;;;9.09;100.00
1616;BME280;801;47.982;7.810;2023-11-21T04:32:56;98110.84;;;9.05;100.00
1616;BME280;801;47.982;7.810;2023-11-21T04:35:22;98107.31;;;9.00;100.00
1616;BME280;801;47.982;7.810;2023-11-21T04:37:49;98115.94;;;9.07;100.00
1616;BME280;801;47.982;7.810;2023-11-21T04:40:17;98115.41;;;9.05;100.00
1616;BME280;801;47.982;7.810;2023-11-21T04:42:46;98116.75;;;9.12;100.00
1616;BME280;801;47.982;7.810;2023-11-21T04:45:12;98114.91;;;9.18;100.00
1616;BME280;801;47.982;7.810;2023-11-21T04:47:39;98119.78;;;9.31;100.00
1616;BME280;801;47.982;7.810;2023-11-21T04:50:06;98132.53;;;9.04;100.00
1616;BME280;801;47.982;7.810;2023-11-21T04:52:32;98137.16;;;9.13;100.00
1616;BME280;801;47.982;7.810;2023-11-21T04:54:59;98143.31;;;9.09;100.00
1616;BME280;801;47.982;7.810;2023-11-21T04:57:27;98138.00;;;9.24;100.00
1616;BME280;801;47.982;7.810;2023-11-21T04:59:54;98140.16;;;9.22;100.00
1616;BME280;801;47.982;7.810;2023-11-21T05:02:21;98144.66;;;9.17;100.00
1616;BME280;801;47.982;7.810;2023-11-21T05:04:47;98149.22;;;9.16;100.00
1616;BME280;801;47.982;7.810;2023-11-21T05:07:14;98155.06;;;9.03;100.00
1616;BME280;801;47.982;7.810;2023-11-21T05:09:41;98160.50;;;9.23;100.00
1616;BME280;801;47.982;7.810;2023-11-21T05:12:09;98151.09;;;9.16;100.00
1616;BME280;801;47.982;7.810;2023-11-21T05:14:37;98158.06;;;9.11;100.00
1616;BME280;801;47.982;7.810;2023-11-21T05:17:04;98159.09;;;9.05;100.00
1616;BME280;801;47.982;7.810;2023-11-21T05:19:30;98155.84;;;9.76;100.00
1616;BME280;801;47.982;7.810;2023-11-21T05:21:58;98158.03;;;10.05;100.00
1616;BME280;801;47.982;7.810;2023-11-21T05:24:25;98163.38;;;10.00;100.00
1616;BME280;801;47.982;7.810;2023-11-21T05:26:52;98175.16;;;9.73;100.00
1616;BME280;801;47.982;7.810;2023-11-21T05:29:18;98177.69;;;9.22;100.00
1616;BME280;801;47.982;7.810;2023-11-21T05:31:46;98169.09;;;9.20;100.00
1616;BME280;801;47.982;7.810;2023-11-21T05:34:13;98181.97;;;9.23;100.00
1616;BME280;801;47.982;7.810;2023-11-21T05:36:39;98179.75;;;9.10;100.00
1616;BME280;801;47.982;7.810;2023-11-21T05:39:06;98172.94;;;8.87;100.00
1616;BME280;801;47.982;7.810;2023-11-21T05:41:33;98168.22;;;8.62;100.00
1616;BME280;801;47.982;7.810;2023-11-21T05:43:59;98169.13;;;8.78;100.00
1616;BME280;801;47.982;7.810;2023-11-21T05:46:26;98166.53;;;8.93;100.00
1616;BME280;801;47.982;7.810;2023-11-21T05:48:56;98171.59;;;8.89;100.00
1616;BME280;801;47.982;7.810;2023-11-21T05:51:23;98176.31;;;8.72;100.00
1616;BME280;801;47.982;7.810;2023-11-21T05:53:50;98177.53;;;8.97;100.00
1616;BME280;801;47.982;7.810;2023-11-21T05:56:16;98188.34;;;9.12;100.00
1616;BME280;801;47.982;7.810;2023-11-21T05:58:43;98195.50;;;9.01;100.00
1616;BME280;801;47.982;7.810;2023-11-21T06:01:09;98191.41;;;8.88;100.00
1616;BME280;801;47.982;7.810;2023-11-21T06:03:38;98194.25;;;9.14;100.00
1616;BME280;801;47.982;7.810;2023-11-21T06:06:06;98196.91;;;9.09;100.00
1616;BME280;801;47.982;7.810;2023-11-21T06:08:33;98191.97;;;8.90;100.00
1616;BME280;801;47.982;7.810;2023-11-21T06:10:59;98197.56;;;9.31;100.00
1616;BME280;801;47.982;7.810;2023-11-21T06:13:26;98194.72;;;9.59;100.00
1616;BME280;801;47.982;7.810;2023-11-21T06:15:53;98199.84;;;9.75;100.00
1616;BME280;801;47.982;7.810;2023-11-21T06:18:20;98203.25;;;9.50;100.00
1616;BME280;801;47.982;7.810;2023-11-21T06:20:46;98200.56;;;9.50;100.00
1616;BME280;801;47.982;7.810;2023-11-21T06:23:14;98203.69;;;9.27;100.00
1616;BME280;801;47.982;7.810;2023-11-21T06:25:41;98205.31;;;9.28;100.00
1616;BME280;801;47.982;7.810;2023-11-21T06:28:08;98205.50;;;9.11;100.00
1616;BME280;801;47.982;7.810;2023-11-21T06:30:34;98211.38;;;9.13;100.00
1616;BME280;801;47.982;7.810;2023-11-21T06:33:01;98211.28;;;9.45;100.00
1616;BME280;801;47.982;7.810;2023-11-21T06:35:27;98214.03;;;9.61;100.00
1616;BME280;801;47.982;7.810;2023-11-21T06:37:55;98212.75;;;9.73;100.00
1616;BME280;801;47.982;7.810;2023-11-21T06:40:23;98216.09;;;9.43;100.00
1616;BME280;801;47.982;7.810;2023-11-21T06:42:50;98218.34;;;9.09;100.00
1616;BME280;801;47.982;7.810;2023-11-21T06:45:17;98217.63;;;9.97;100.00
1616;BME280;801;47.982;7.810;2023-11-21T06:47:43;98211.25;;;10.44;100.00
1616;BME280;801;47.982;7.810;2023-11-21T06:50:10;98221.38;;;10.06;100.00
1616;BME280;801;47.982;7.810;2023-11-21T06:52:37;98226.88;;;9.53;100.00
1616;BME280;801;47.982;7.810;2023-11-21T06:55:04;98225.06;;;9.69;100.00
1616;BME280;801;47.982;7.810;2023-11-21T06:57:34;98224.56;;;9.88;100.00
1616;BME280;801;47.982;7.810;2023-11-21T07:00:01;98227.25;;;9.93;100.00
1616;BME280;801;47.982;7.810;2023-11-21T07:02:28;98225.66;;;10.02;100.00
1616;BME280;801;47.982;7.810;2023-11-21T07:04:54;98229.97;;;9.98;100.00
1616;BME280;801;47.982;7.810;2023-11-21T07:07:21;98227.81;;;9.90;100.00
1616;BME280;801;47.982;7.810;2023-11-21T07:09:47;98235.00;;;9.74;100.00
1616;BME280;801;47.982;7.810;2023-11-21T07:12:14;98230.47;;;9.85;100.00
1616;BME280;801;47.982;7.810;2023-11-21T07:14:42;98226.41;;;9.77;100.00
1616;BME280;801;47.982;7.810;2023-11-21T07:17:10;98232.63;;;9.83;100.00
1616;BME280;801;47.982;7.810;2023-11-21T07:19:37;98235.56;;;9.86;100.00
1616;BME280;801;47.982;7.810;2023-11-21T07:22:03;98234.09;;;9.48;100.00
1616;BME280;801;47.982;7.810;2023-11-21T07:24:31;98239.59;;;9.79;100.00
1616;BME280;801;47.982;7.810;2023-11-21T07:26:57;98237.94;;;9.67;100.00
1616;BME280;801;47.982;7.810;2023-11-21T07:29:24;98246.50;;;9.64;100.00
1616;BME280;801;47.982;7.810;2023-11-21T07:31:53;98249.84;;;9.29;100.00
1616;BME280;801;47.982;7.810;2023-11-21T07:34:19;98256.47;;;9.74;100.00
1616;BME280;801;47.982;7.810;2023-11-21T07:36:46;98253.84;;;9.94;100.00
1616;BME280;801;47.982;7.810;2023-11-21T07:39:12;98259.75;;;9.96;100.00
1616;BME280;801;47.982;7.810;2023-11-21T07:41:41;98257.94;;;10.17;100.00
1616;BME280;801;47.982;7.810;2023-11-21T07:44:14;98251.53;;;10.29;100.00
1616;BME280;801;47.982;7.810;2023-11-21T07:46:40;98253.69;;;10.37;100.00
1616;BME280;801;47.982;7.810;2023-11-21T07:49:08;98254.47;;;10.27;100.00
1616;BME280;801;47.982;7.810;2023-11-21T07:51:35;98250.19;;;10.31;100.00
1616;BME280;801;47.982;7.810;2023-11-21T07:54:01;98260.34;;;10.24;100.00
1616;BME280;801;47.982;7.810;2023-11-21T07:56:28;98264.38;;;10.27;100.00
1616;BME280;801;47.982;7.810;2023-11-21T07:58:54;98264.97;;;10.34;100.00
1616;BME280;801;47.982;7.810;2023-11-21T08:01:21;98253.09;;;10.25;100.00
1616;BME280;801;47.982;7.810;2023-11-21T08:03:47;98259.31;;;10.30;100.00
1616;BME280;801;47.982;7.810;2023-11-21T08:06:18;98266.59;;;10.35;100.00
1616;BME280;801;47.982;7.810;2023-11-21T08:08:44;98262.00;;;10.35;100.00
1616;BME280;801;47.982;7.810;2023-11-21T08:11:11;98263.66;;;10.52;100.00
1616;BME280;801;47.982;7.810;2023-11-21T08:13:38;98268.75;;;10.43;100.00
1616;BME280;801;47.982;7.810;2023-11-21T08:16:05;98268.19;;;10.31;100.00
1616;BME280;801;47.982;7.810;2023-11-21T08:18:32;98269.00;;;10.47;100.00
1616;BME280;801;47.982;7.810;2023-11-21T08:20:59;98277.88;;;10.63;100.00
1616;BME280;801;47.982;7.810;2023-11-21T08:23:27;98281.13;;;10.75;100.00
1616;BME280;801;47.982;7.810;2023-11-21T08:25:55;98287.03;;;10.72;100.00
1616;BME280;801;47.982;7.810;2023-11-21T08:28:21;98290.00;;;10.65;100.00
1616;BME280;801;47.982;7.810;2023-11-21T08:30:51;98292.41;;;10.62;100.00
1616;BME280;801;47.982;7.810;2023-11-21T08:33:17;98291.31;;;10.47;100.00
1616;BME280;801;47.982;7.810;2023-11-21T08:35:44;98291.06;;;10.64;100.00
1616;BME280;801;47.982;7.810;2023-11-21T08:38:12;98287.56;;;10.69;100.00
1616;BME280;801;47.982;7.810;2023-11-21T08:40:39;98294.56;;;10.75;100.00
1616;BME280;801;47.982;7.810;2023-11-21T08:43:06;98296.69;;;10.78;100.00
1616;BME280;801;47.982;7.810;2023-11-21T08:45:33;98294.56;;;10.85;100.00
1616;BME280;801;47.982;7.810;2023-11-21T08:48:00;98303.69;;;10.89;100.00
1616;BME280;801;47.982;7.810;2023-11-21T08:50:26;98305.03;;;10.87;100.00
1616;BME280;801;47.982;7.810;2023-11-21T08:52:53;98301.28;;;10.88;100.00
1616;BME280;801;47.982;7.810;2023-11-21T08:55:20;98298.59;;;10.93;100.00
1616;BME280;801;47.982;7.810;2023-11-21T08:57:47;98295.66;;;10.94;100.00
1616;BME280;801;47.982;7.810;2023-11-21T09:00:14;98296.44;;;11.05;100.00
1616;BME280;801;47.982;7.810;2023-11-21T09:02:42;98300.75;;;11.01;100.00
1616;BME280;801;47.982;7.810;2023-11-21T09:05:09;98300.47;;;10.87;100.00
1616;BME280;801;47.982;7.810;2023-11-21T09:07:36;98294.56;;;10.90;100.00
1616;BME280;801;47.982;7.810;2023-11-21T09:10:03;98302.34;;;10.71;100.00
1616;BME280;801;47.982;7.810;2023-11-21T09:12:32;98311.78;;;10.94;100.00
1616;BME280;801;47.982;7.810;2023-11-21T09:15:02;98311.22;;;11.13;100.00
1616;BME280;801;47.982;7.810;2023-11-21T09:17:29;98310.16;;;11.09;100.00
1616;BME280;801;47.982;7.810;2023-11-21T09:19:56;98309.06;;;11.20;100.00
1616;BME280;801;47.982;7.810;2023-11-21T09:22:23;98319.25;;;11.33;100.00
1616;BME280;801;47.982;7.810;2023-11-21T09:24:50;98326.78;;;11.31;100.00
1616;BME280;801;47.982;7.810;2023-11-21T09:27:17;98326.78;;;11.31;100.00
1616;BME280;801;47.982;7.810;2023-11-21T09:29:43;98324.13;;;11.26;100.00
1616;BME280;801;47.982;7.810;2023-11-21T09:32:12;98331.66;;;11.24;100.00
1616;BME280;801;47.982;7.810;2023-11-21T09:34:41;98335.94;;;11.30;100.00
1616;BME280;801;47.982;7.810;2023-11-21T09:37:08;98337.03;;;11.14;100.00
1616;BME280;801;47.982;7.810;2023-11-21T09:39:35;98333.81;;;11.17;100.00
1616;BME280;801;47.982;7.810;2023-11-21T09:42:07;98339.97;;;11.22;100.00
1616;BME280;801;47.982;7.810;2023-11-21T09:44:44;98341.56;;;11.34;100.00
1616;BME280;801;47.982;7.810;2023-11-21T09:47:15;98348.03;;;11.43;100.00
1616;BME280;801;47.982;7.810;2023-11-21T09:49:47;98343.22;;;11.35;100.00
1616;BME280;801;47.982;7.810;2023-11-21T09:52:21;98348.31;;;11.00;100.00
1616;BME280;801;47.982;7.810;2023-11-21T09:54:51;98355.56;;;10.85;100.00
1616;BME280;801;47.982;7.810;2023-11-21T09:57:19;98361.75;;;10.75;100.00
1616;BME280;801;47.982;7.810;2023-11-21T09:59:46;98359.84;;;10.50;100.00
1616;BME280;801;47.982;7.810;2023-11-21T10:02:17;98362.81;;;10.69;100.00
1616;BME280;801;47.982;7.810;2023-11-21T10:04:46;98361.72;;;10.59;100.00
1616;BME280;801;47.982;7.810;2023-11-21T10:07:13;98370.28;;;10.51;100.00
1616;BME280;801;47.982;7.810;2023-11-21T10:09:43;98368.19;;;10.64;100.00
1616;BME280;801;47.982;7.810;2023-11-21T10:12:11;98362.78;;;10.43;100.00
1616;BME280;801;47.982;7.810;2023-11-21T10:14:41;98368.22;;;10.79;100.00
1616;BME280;801;47.982;7.810;2023-11-21T10:17:10;98369.28;;;10.73;100.00
1616;BME280;801;47.982;7.810;2023-11-21T10:19:39;98361.47;;;10.66;100.00
1616;BME280;801;47.982;7.810;2023-11-21T10:22:06;98362.03;;;10.89;100.00
1616;BME280;801;47.982;7.810;2023-11-21T10:24:34;98362.81;;;10.69;100.00
1616;BME280;801;47.982;7.810;2023-11-21T10:27:00;98366.84;;;10.61;100.00
1616;BME280;801;47.982;7.810;2023-11-21T10:29:29;98367.38;;;10.68;100.00
1616;BME280;801;47.982;7.810;2023-11-21T10:31:55;98381.63;;;10.64;100.00
1616;BME280;801;47.982;7.810;2023-11-21T10:34:24;98373.84;;;10.83;100.00
1616;BME280;801;47.982;7.810;2023-11-21T10:36:54;98377.91;;;10.85;100.00
1616;BME280;801;47.982;7.810;2023-11-21T10:39:24;98373.06;;;10.72;100.00
1616;BME280;801;47.982;7.810;2023-11-21T10:41:54;98376.03;;;11.06;100.00
1616;BME280;801;47.982;7.810;2023-11-21T10:44:21;98369.81;;;11.47;100.00
1616;BME280;801;47.982;7.810;2023-11-21T10:46:49;98368.75;;;10.86;100.00
1616;BME280;801;47.982;7.810;2023-11-21T10:49:17;98364.41;;;10.59;100.00
1616;BME280;801;47.982;7.810;2023-11-21T10:51:45;98358.78;;;10.71;100.00
1616;BME280;801;47.982;7.810;2023-11-21T10:54:18;98355.56;;;10.59;100.00
1616;BME280;801;47.982;7.810;2023-11-21T10:56:46;98360.66;;;10.61;100.00
1616;BME280;801;47.982;7.810;2023-11-21T10:59:16;98366.56;;;10.52;100.00
1616;BME280;801;47.982;7.810;2023-11-21T11:01:45;98370.59;;;10.50;100.00
1616;BME280;801;47.982;7.810;2023-11-21T11:04:12;98359.41;;;10.15;100.00
1616;BME280;801;47.982;7.810;2023-11-21T11:06:42;98362.63;;;10.12;100.00
1616;BME280;801;47.982;7.810;2023-11-21T11:09:10;98361.28;;;10.15;100.00
1616;BME280;801;47.982;7.810;2023-11-21T11:11:40;98363.81;;;10.32;100.00
1616;BME280;801;47.982;7.810;2023-11-21T11:14:11;98362.03;;;10.00;100.00
1616;BME280;801;47.982;7.810;2023-11-21T11:16:39;98364.19;;;9.98;100.00
1616;BME280;801;47.982;7.810;2023-11-21T11:19:06;98362.28;;;9.93;100.00
1616;BME280;801;47.982;7.810;2023-11-21T11:21:42;98368.31;;;9.68;100.00
1616;BME280;801;47.982;7.810;2023-11-21T11:24:23;98373.53;;;9.85;100.00
1616;BME280;801;47.982;7.810;2023-11-21T11:27:02;98367.84;;;9.82;100.00
1616;BME280;801;47.982;7.810;2023-11-21T11:29:41;98372.66;;;9.80;100.00
1616;BME280;801;47.982;7.810;2023-11-21T11:32:16;98369.03;;;10.01;100.00
1616;BME280;801;47.982;7.810;2023-11-21T11:34:50;98371.81;;;10.27;100.00
1616;BME280;801;47.982;7.810;2023-11-21T11:37:20;98369.09;;;10.11;100.00
1616;BME280;801;47.982;7.810;2023-11-21T11:39:49;98372.34;;;9.66;100.00
1616;BME280;801;47.982;7.810;2023-11-21T11:42:17;98369.44;;;9.77;100.00
1616;BME280;801;47.982;7.810;2023-11-21T11:44:50;98371.75;;;9.59;100.00
1616;BME280;801;47.982;7.810;2023-11-21T11:47:23;98373.38;;;9.60;100.00
1616;BME280;801;47.982;7.810;2023-11-21T11:50:01;98374.19;;;9.60;100.00
1616;BME280;801;47.982;7.810;2023-11-21T11:52:40;98375.00;;;9.61;100.00
1616;BME280;801;47.982;7.810;2023-11-21T11:55:08;98381.72;;;9.63;100.00
1616;BME280;801;47.982;7.810;2023-11-21T11:57:41;98385.03;;;9.81;100.00
1616;BME280;801;47.982;7.810;2023-11-21T12:00:09;98377.63;;;10.03;100.00
1616;BME280;801;47.982;7.810;2023-11-21T12:02:36;98373.31;;;9.97;100.00
1616;BME280;801;47.982;7.810;2023-11-21T12:05:08;98379.59;;;9.70;100.00
1616;BME280;801;47.982;7.810;2023-11-21T12:07:42;98375.56;;;9.68;100.00
1616;BME280;801;47.982;7.810;2023-11-21T12:10:11;98374.72;;;9.62;100.00
1616;BME280;801;47.982;7.810;2023-11-21T12:12:46;98367.94;;;9.49;100.00
1616;BME280;801;47.982;7.810;2023-11-21T12:15:13;98369.41;;;9.67;100.00
1616;BME280;801;47.982;7.810;2023-11-21T12:17:41;98372.78;;;9.52;100.00
1616;BME280;801;47.982;7.810;2023-11-21T12:20:09;98365.63;;;9.68;100.00
1616;BME280;801;47.982;7.810;2023-11-21T12:22:42;98364.59;;;9.69;100.00
1616;BME280;801;47.982;7.810;2023-11-21T12:25:09;98364.91;;;9.78;100.00
1616;BME280;801;47.982;7.810;2023-11-21T12:27:42;98371.63;;;9.86;100.00
1616;BME280;801;47.982;7.810;2023-11-21T12:30:11;98368.72;;;9.97;100.00
1616;BME280;801;47.982;7.810;2023-11-21T12:32:41;98373.38;;;10.17;100.00
1616;BME280;801;47.982;7.810;2023-11-21T12:35:09;98365.00;;;9.98;100.00
1616;BME280;801;47.982;7.810;2023-11-21T12:37:36;98363.72;;;10.11;100.00
1616;BME280;801;47.982;7.810;2023-11-21T12:40:04;98369.50;;;10.46;100.00
1616;BME280;801;47.982;7.810;2023-11-21T12:42:32;98370.00;;;10.32;100.00
1616;BME280;801;47.982;7.810;2023-11-21T12:45:18;98372.44;;;10.39;100.00
1616;BME280;801;47.982;7.810;2023-11-21T12:47:46;98377.69;;;10.18;100.00
1616;BME280;801;47.982;7.810;2023-11-21T12:50:12;98381.44;;;10.12;100.00
1616;BME280;801;47.982;7.810;2023-11-21T12:52:41;98389.50;;;10.17;100.00
1616;BME280;801;47.982;7.810;2023-11-21T12:55:13;98381.53;;;10.33;100.00
1616;BME280;801;47.982;7.810;2023-11-21T12:57:42;98374.16;;;10.08;100.00
1616;BME280;801;47.982;7.810;2023-11-21T13:00:12;98376.13;;;10.23;100.00
1616;BME280;801;47.982;7.810;2023-11-21T13:02:53;98381.03;;;10.36;100.00
1616;BME280;801;47.982;7.810;2023-11-21T13:05:24;98377.19;;;10.27;100.00
1616;BME280;801;47.982;7.810;2023-11-21T13:07:50;98373.53;;;10.48;100.00
1616;BME280;801;47.982;7.810;2023-11-21T13:10:20;98378.31;;;10.31;100.00
1616;BME280;801;47.982;7.810;2023-11-21T13:12:50;98389.09;;;10.51;100.00
1616;BME280;801;47.982;7.810;2023-11-21T13:15:19;98386.41;;;10.36;100.00
1616;BME280;801;47.982;7.810;2023-11-21T13:17:45;98396.34;;;10.41;100.00
1616;BME280;801;47.982;7.810;2023-11-21T13:20:12;98395.31;;;10.52;100.00
1616;BME280;801;47.982;7.810;2023-11-21T13:22:45;98401.53;;;10.68;100.00
1616;BME280;801;47.982;7.810;2023-11-21T13:25:12;98398.03;;;10.72;100.00
1616;BME280;801;47.982;7.810;2023-11-21T13:27:40;98402.56;;;10.67;100.00
1616;BME280;801;47.982;7.810;2023-11-21T13:30:09;98405.31;;;11.02;100.00
1616;BME280;801;47.982;7.810;2023-11-21T13:32:37;98401.00;;;10.86;100.00